createdAt,value
2023-01-29T03:10:16.415Z,91.34
2023-01-29T03:12:48.507Z,91.48
2023-01-29T03:15:20.574Z,91.57
2023-01-29T03:18:07.298Z,91.09
2023-01-29T03:20:39.888Z,91.39
2023-01-29T03:23:14.204Z,91.66
2023-01-29T03:25:44.721Z,91.81
2023-01-29T03:28:15.872Z,91.14
2023-01-29T03:30:50.480Z,90.56
2023-01-29T03:33:43.648Z,91.26
2023-01-29T03:36:16.612Z,91.38
2023-01-29T03:38:44.078Z,91.46
2023-01-29T03:41:20.080Z,90.96
2023-01-29T03:43:55.096Z,91.01
2023-01-29T03:46:27.483Z,91.64
2023-01-29T03:49:00.571Z,91.36
2023-01-29T03:51:33.333Z,91.37
2023-01-29T03:54:08.698Z,91.38
2023-01-29T04:05:13.611Z,91.79
2023-01-29T04:07:57.368Z,91.70
2023-01-29T04:10:27.764Z,91.88
2023-01-29T05:54:30.590Z,90.47
2023-01-29T05:56:57.615Z,89.73
2023-01-29T05:59:24.651Z,89.79
2023-01-29T06:11:10.108Z,89.77
2023-01-29T06:25:24.622Z,89.31
2023-01-29T08:08:20.898Z,88.51
2023-01-29T08:10:50.283Z,88.77
2023-01-29T08:13:20.377Z,88.48
2023-01-29T08:15:47.535Z,88.84
2023-01-29T08:18:15.209Z,88.42
2023-01-29T08:20:42.104Z,88.26
2023-01-29T08:23:15.894Z,88.19
2023-01-29T08:25:44.409Z,87.90
2023-01-29T08:28:12.116Z,87.36
2023-01-29T08:30:39.177Z,87.41
2023-01-29T08:33:05.775Z,87.22
2023-01-29T08:35:32.912Z,87.31
2023-01-29T08:38:01.868Z,87.23
2023-01-29T08:40:31.816Z,87.20
2023-01-29T08:43:01.986Z,86.50
2023-01-29T08:45:29.740Z,86.60
2023-01-29T08:47:56.640Z,86.34
2023-01-29T08:50:23.428Z,85.46
2023-01-29T08:52:50.054Z,85.89
2023-01-29T08:55:17.167Z,85.41
2023-01-29T08:57:45.471Z,85.51
2023-01-29T09:00:13.120Z,85.31
2023-01-29T09:02:39.763Z,86.11
2023-01-29T09:05:07.422Z,86.43
2023-01-29T09:07:34.045Z,86.49
2023-01-29T09:10:01.330Z,86.28
2023-01-29T09:12:28.173Z,86.02
2023-01-29T09:14:56.334Z,85.68
2023-01-29T09:17:22.858Z,85.47
2023-01-29T09:19:49.378Z,85.57
2023-01-29T09:22:15.936Z,85.87
2023-01-29T09:24:42.484Z,85.45
2023-01-29T09:27:09.165Z,85.27
2023-01-29T09:29:36.137Z,85.72
2023-01-29T09:32:05.435Z,85.28
2023-01-29T09:34:33.725Z,85.61
2023-01-29T09:37:00.309Z,85.25
2023-01-29T09:39:26.944Z,84.29
2023-01-29T09:41:59.752Z,84.35
2023-01-29T09:44:42.659Z,84.48
2023-01-29T09:47:14.428Z,84.41
2023-01-29T09:49:45.866Z,85.07
2023-01-29T09:52:18.975Z,85.62
2023-01-29T09:54:54.629Z,85.29
2023-01-29T09:57:25.847Z,84.65
2023-01-29T09:59:53.983Z,85.42
2023-01-29T10:02:42.973Z,85.42
2023-01-29T10:05:24.552Z,85.26
2023-01-29T10:08:13.240Z,84.93
2023-01-29T10:10:49.182Z,85.08
2023-01-29T10:13:27.231Z,85.06
2023-01-29T10:16:08.314Z,84.37
2023-01-29T10:19:10.524Z,84.06
2023-01-29T10:21:56.921Z,83.74
2023-01-29T10:24:29.673Z,84.00
2023-01-29T10:26:57.452Z,83.54
2023-01-29T10:29:27.243Z,83.85
2023-01-29T10:31:56.991Z,82.65
2023-01-29T10:34:31.355Z,82.67
2023-01-29T10:36:59.611Z,82.88
2023-01-29T10:39:29.633Z,82.75
2023-01-29T10:42:13.194Z,80.88
2023-01-29T10:44:53.510Z,79.86
2023-01-29T10:47:37.852Z,80.63
2023-01-29T10:50:17.953Z,79.19
2023-01-29T10:53:01.394Z,79.14
2023-01-29T10:55:41.460Z,77.86
2023-01-29T10:58:19.224Z,78.86
2023-01-29T11:00:46.105Z,79.29
2023-01-29T11:03:26.924Z,78.86
2023-01-29T11:06:01.760Z,77.00
2023-01-29T11:08:37.605Z,75.48
2023-01-29T11:11:08.104Z,74.41
2023-01-29T11:13:40.305Z,74.25
2023-01-29T11:16:09.321Z,72.55
2023-01-29T11:18:57.183Z,71.80
2023-01-29T11:21:25.130Z,70.58
2023-01-29T11:24:06.116Z,71.09
2023-01-29T11:26:37.746Z,70.57
2023-01-29T11:29:04.418Z,71.08
2023-01-29T11:31:37.492Z,70.59
2023-01-29T11:34:06.442Z,70.28
2023-01-29T11:36:36.044Z,70.24
2023-01-29T11:39:18.139Z,70.41
2023-01-29T11:41:49.417Z,70.36
2023-01-29T11:44:21.309Z,69.48
2023-01-29T11:46:49.565Z,69.49
2023-01-29T11:49:32.846Z,68.33
2023-01-29T11:52:02.088Z,69.87
2023-01-29T11:54:34.362Z,67.69
2023-01-29T11:57:02.407Z,69.15
2023-01-29T11:59:38.047Z,69.48
2023-01-29T12:02:19.121Z,70.16
2023-01-29T12:04:46.571Z,69.23
2023-01-29T12:07:16.140Z,68.46
2023-01-29T12:09:52.243Z,68.96
2023-01-29T12:12:28.798Z,69.48
2023-01-29T12:15:16.838Z,67.71
2023-01-29T12:17:50.821Z,67.77
2023-01-29T12:20:24.123Z,67.71
2023-01-29T12:22:59.137Z,67.63
2023-01-29T12:25:41.594Z,66.00
2023-01-29T12:28:19.215Z,66.75
2023-01-29T12:30:55.556Z,66.26
2023-01-29T12:33:35.326Z,66.54
2023-01-29T12:36:10.895Z,67.07
2023-01-29T12:38:37.793Z,66.98
2023-01-29T12:41:13.829Z,67.16
2023-01-29T12:43:46.000Z,67.69
2023-01-29T12:46:21.600Z,67.63
2023-01-29T12:48:50.381Z,67.91
2023-01-29T12:51:19.356Z,67.53
2023-01-29T12:53:54.026Z,67.88
2023-01-29T12:56:29.072Z,67.45
2023-01-29T12:58:58.844Z,66.85
2023-01-29T13:01:29.580Z,66.94
2023-01-29T13:04:01.654Z,67.13
2023-01-29T13:06:33.850Z,67.58
2023-01-29T13:09:04.590Z,66.05
2023-01-29T13:11:38.211Z,64.53
2023-01-29T13:14:13.968Z,65.35
2023-01-29T13:16:45.283Z,65.69
2023-01-29T13:19:21.892Z,64.50
2023-01-29T13:21:48.826Z,64.08
2023-01-29T13:24:18.462Z,62.56
2023-01-29T13:26:48.586Z,62.85
2023-01-29T13:29:23.914Z,63.95
2023-01-29T13:31:54.503Z,64.40
2023-01-29T13:34:25.584Z,64.87
2023-01-29T13:36:57.354Z,64.23
2023-01-29T13:39:30.453Z,64.88
2023-01-29T13:42:03.887Z,65.34
2023-01-29T13:44:35.560Z,65.18
2023-01-29T13:47:04.446Z,65.08
2023-01-29T13:49:39.254Z,64.96
2023-01-29T13:52:30.910Z,65.52
2023-01-29T13:55:00.770Z,64.71
2023-01-29T13:57:50.701Z,64.43
2023-01-29T14:00:57.017Z,64.63
2023-01-29T14:04:04.249Z,65.00
2023-01-29T14:06:50.445Z,64.01
2023-01-29T14:09:34.732Z,62.15
2023-01-29T14:12:03.682Z,62.55
2023-01-29T14:15:01.566Z,63.08
2023-01-29T14:17:30.180Z,64.42
2023-01-29T14:20:02.226Z,61.66
2023-01-29T14:22:30.682Z,61.31
2023-01-29T14:25:03.977Z,60.79
2023-01-29T14:27:31.873Z,60.66
2023-01-29T14:30:07.462Z,61.42
2023-01-29T14:32:34.371Z,59.31
2023-01-29T14:35:03.585Z,59.74
2023-01-29T14:37:34.149Z,59.82
2023-01-29T14:40:19.437Z,59.57
2023-01-29T14:42:57.177Z,60.46
2023-01-29T14:45:28.843Z,60.44
2023-01-29T14:47:58.246Z,60.08
2023-01-29T14:50:43.561Z,60.84
2023-01-29T14:53:14.485Z,60.01
2023-01-29T14:55:44.310Z,60.42
2023-01-29T14:58:14.619Z,60.57
2023-01-29T15:00:45.030Z,60.26
2023-01-29T15:03:20.249Z,61.13
2023-01-29T15:05:49.313Z,61.40
2023-01-29T15:08:23.102Z,61.35
2023-01-29T15:10:54.332Z,62.01
2023-01-29T15:13:28.447Z,61.98
2023-01-29T15:16:03.907Z,62.20
2023-01-29T15:18:34.992Z,60.89
2023-01-29T15:21:04.727Z,61.69
2023-01-29T15:23:33.764Z,61.68
2023-01-29T15:26:04.342Z,62.23
2023-01-29T15:28:32.833Z,61.95
2023-01-29T15:31:03.566Z,62.27
2023-01-29T15:33:31.895Z,63.00
2023-01-29T15:36:08.567Z,62.84
2023-01-29T15:38:35.640Z,63.22
2023-01-29T15:41:14.799Z,63.74
2023-01-29T15:43:44.527Z,64.06
2023-01-29T15:46:20.585Z,64.42
2023-01-29T15:48:48.969Z,64.79
2023-01-29T15:51:17.674Z,65.46
2023-01-29T15:53:50.129Z,66.21
2023-01-29T15:56:21.623Z,66.71
2023-01-29T15:58:49.915Z,67.10
2023-01-29T16:01:18.197Z,67.51
2023-01-29T16:03:46.155Z,68.02
2023-01-29T16:06:12.979Z,68.32
2023-01-29T16:08:41.963Z,68.40
2023-01-29T16:11:11.320Z,69.20
2023-01-29T16:13:41.348Z,69.53
2023-01-29T16:16:24.069Z,68.51
2023-01-29T16:18:59.902Z,68.66
2023-01-29T16:21:30.164Z,69.14
2023-01-29T16:23:59.130Z,69.52
2023-01-29T16:26:28.265Z,69.69
2023-01-29T16:28:55.489Z,70.07
2023-01-29T16:31:27.584Z,70.55
2023-01-29T16:33:57.025Z,70.50
2023-01-29T16:36:26.710Z,70.87
2023-01-29T16:38:55.349Z,70.79
2023-01-29T16:41:30.371Z,70.76
2023-01-29T16:43:58.980Z,71.06
2023-01-29T16:46:32.777Z,71.36
2023-01-29T16:49:00.124Z,71.67
2023-01-29T16:51:29.762Z,71.68
2023-01-29T16:53:59.693Z,71.64
2023-01-29T16:56:32.187Z,71.93
2023-01-29T16:59:00.101Z,72.06
2023-01-29T17:01:30.120Z,72.02
2023-01-29T17:04:02.800Z,72.18
2023-01-29T17:06:32.373Z,71.53
2023-01-29T17:08:59.552Z,71.12
2023-01-29T17:11:31.832Z,71.15
2023-01-29T17:13:59.240Z,71.10
2023-01-29T17:16:29.567Z,70.36
2023-01-29T17:18:56.363Z,70.78
2023-01-29T17:21:23.428Z,70.04
2023-01-29T17:23:50.695Z,69.94
2023-01-29T17:26:18.398Z,69.87
2023-01-29T17:28:46.365Z,70.32
2023-01-29T17:31:13.231Z,70.36
2023-01-29T17:33:43.262Z,70.38
2023-01-29T17:36:11.350Z,70.40
2023-01-29T17:38:38.045Z,70.15
2023-01-29T17:41:08.064Z,70.26
2023-01-29T17:43:34.932Z,70.70
2023-01-29T17:46:01.581Z,70.77
2023-01-29T17:48:29.704Z,70.71
2023-01-29T17:51:00.500Z,70.66
2023-01-29T17:53:43.328Z,70.73
2023-01-29T17:56:15.527Z,70.25
2023-01-29T17:58:42.153Z,70.23
2023-01-29T18:01:08.667Z,70.88
2023-01-29T18:03:35.297Z,70.55
2023-01-29T18:06:03.449Z,70.59
2023-01-29T18:08:33.676Z,70.83
2023-01-29T18:11:00.926Z,70.49
2023-01-29T18:13:27.480Z,70.64
2023-01-29T18:15:54.193Z,70.34
2023-01-29T18:18:22.993Z,69.96
2023-01-29T18:20:50.303Z,70.72
2023-01-29T18:23:18.227Z,70.71
2023-01-29T18:25:45.338Z,70.77
2023-01-29T18:28:14.479Z,70.52
2023-01-29T18:30:41.351Z,70.75
2023-01-29T18:33:07.908Z,70.55
2023-01-29T18:35:34.498Z,70.83
2023-01-29T18:38:01.062Z,71.04
2023-01-29T18:40:29.016Z,71.09
2023-01-29T18:42:55.521Z,71.10
2023-01-29T18:45:22.021Z,71.10
2023-01-29T18:47:48.654Z,70.99
2023-01-29T18:50:15.669Z,70.92
2023-01-29T18:52:43.704Z,71.16
2023-01-29T18:55:10.557Z,70.79
2023-01-29T18:58:27.446Z,70.03
2023-01-29T19:00:25.120Z,70.37
2023-01-29T19:02:51.624Z,70.53
2023-01-29T19:05:18.814Z,70.68
2023-01-29T19:07:45.671Z,69.98
2023-01-29T19:10:12.356Z,70.05
2023-01-29T19:12:40.287Z,70.23
2023-01-29T19:15:08.157Z,69.91
2023-01-29T19:17:34.765Z,69.87
2023-01-29T19:20:01.491Z,69.75
2023-01-29T19:22:28.162Z,70.33
2023-01-29T19:24:54.823Z,70.71
2023-01-29T19:27:21.324Z,70.96
2023-01-29T19:29:49.314Z,71.34
2023-01-29T19:32:15.827Z,71.32
2023-01-29T19:34:42.488Z,70.53
2023-01-29T19:37:09.048Z,70.28
2023-01-29T19:39:35.717Z,70.83
2023-01-29T19:42:02.345Z,70.45
2023-01-29T19:44:28.979Z,70.83
2023-01-29T19:46:56.849Z,70.50
2023-01-29T19:49:25.083Z,70.38
2023-01-29T19:51:51.719Z,70.21
2023-01-29T19:54:18.293Z,70.25
2023-01-29T19:56:44.777Z,70.46
2023-01-29T19:59:11.637Z,70.54
2023-01-29T20:01:38.254Z,70.90
2023-01-29T20:04:06.227Z,70.75
2023-01-29T20:06:32.774Z,70.64
2023-01-29T20:08:59.415Z,70.67
2023-01-29T20:11:25.903Z,71.26
2023-01-29T20:13:53.258Z,71.53
2023-01-29T20:16:24.762Z,71.69
2023-01-29T20:18:53.018Z,71.55
2023-01-29T20:21:21.237Z,72.11
2023-01-29T20:23:49.498Z,72.35
2023-01-29T20:26:16.718Z,72.14
2023-01-29T20:28:45.349Z,72.37
2023-01-29T20:31:11.898Z,72.85
2023-01-29T20:33:39.658Z,73.02
2023-01-29T20:36:08.323Z,73.28
2023-01-29T20:38:36.576Z,72.66
2023-01-29T20:41:04.876Z,72.69
2023-01-29T20:43:31.590Z,72.78
2023-01-29T20:45:58.527Z,73.08
2023-01-29T20:48:25.180Z,73.06
2023-01-29T20:50:51.785Z,72.36
2023-01-29T20:53:18.458Z,72.71
2023-01-29T20:55:46.360Z,72.87
2023-01-29T20:58:13.092Z,73.61
2023-01-29T21:00:39.763Z,73.68
2023-01-29T21:03:06.334Z,74.18
2023-01-29T21:05:32.877Z,74.05
2023-01-29T21:07:59.484Z,74.42
2023-01-29T21:10:26.224Z,74.56
2023-01-29T21:12:54.165Z,74.79
2023-01-29T21:15:20.865Z,75.07
2023-01-29T21:17:47.508Z,75.40
2023-01-29T21:20:14.230Z,75.67
2023-01-29T21:22:40.857Z,75.15
2023-01-29T21:25:08.403Z,75.15
2023-01-29T21:27:35.110Z,75.52
2023-01-29T21:30:03.491Z,75.44
2023-01-29T21:32:30.094Z,75.98
2023-01-29T21:34:56.617Z,76.27
2023-01-29T21:37:23.245Z,76.66
2023-01-29T21:39:49.791Z,76.72
2023-01-29T21:42:16.361Z,76.82
2023-01-29T21:44:42.926Z,76.68
2023-01-29T21:47:10.891Z,76.94
2023-01-29T21:49:38.637Z,76.75
2023-01-29T21:52:05.261Z,77.33
2023-01-29T21:54:31.844Z,77.35
2023-01-29T21:56:58.479Z,76.94
2023-01-29T21:59:24.996Z,76.85
2023-01-29T22:01:51.704Z,77.01
2023-01-29T22:04:19.571Z,77.34
2023-01-29T22:06:46.171Z,77.41
2023-01-29T22:09:12.915Z,77.74
2023-01-29T22:11:40.649Z,77.87
2023-01-29T22:14:07.480Z,77.78
2023-01-29T22:16:34.410Z,77.92
2023-01-29T22:19:01.074Z,77.65
2023-01-29T22:21:29.175Z,77.21
2023-01-29T22:23:55.921Z,77.54
2023-01-29T22:26:22.697Z,77.41
2023-01-29T22:28:49.221Z,77.84
2023-01-29T22:31:15.800Z,77.75
2023-01-29T22:33:43.232Z,77.98
2023-01-29T22:36:10.040Z,77.75
2023-01-29T22:38:37.973Z,78.23
2023-01-29T22:41:05.021Z,78.44
2023-01-29T22:43:31.685Z,78.44
2023-01-29T22:45:58.288Z,78.84
2023-01-29T22:48:24.993Z,79.02
2023-01-29T22:50:55.989Z,79.51
2023-01-29T22:53:22.588Z,79.81
2023-01-29T22:55:55.399Z,80.39
2023-01-29T22:58:22.075Z,82.67
2023-01-29T23:00:50.111Z,83.04
2023-01-29T23:03:16.772Z,83.68
2023-01-29T23:05:43.287Z,84.56
2023-01-29T23:08:10.167Z,84.81
2023-01-29T23:10:37.357Z,85.01
2023-01-29T23:13:05.534Z,85.38
2023-01-29T23:15:32.309Z,85.70
2023-01-29T23:17:58.904Z,85.43
2023-01-29T23:20:25.460Z,85.49
2023-01-29T23:22:52.305Z,85.65
2023-01-29T23:25:18.844Z,85.54
2023-01-29T23:27:45.394Z,86.01
2023-01-29T23:30:14.223Z,86.04
2023-01-29T23:32:41.167Z,85.99
2023-01-29T23:35:08.462Z,86.21
2023-01-29T23:37:35.027Z,86.06
2023-01-29T23:40:01.609Z,86.36
2023-01-29T23:42:28.465Z,86.56
2023-01-29T23:44:55.017Z,86.70
2023-01-29T23:47:22.929Z,86.84
2023-01-29T23:49:49.436Z,87.24
2023-01-29T23:52:16.099Z,87.47
2023-01-29T23:54:42.604Z,87.90
2023-01-29T23:57:09.229Z,88.19
2023-01-29T23:59:35.777Z,88.43
